Startpagina
METAR-TAF:

METAR-TAF

Vliegvelden :

Luchthaven van Praag

Praag, Tsjechië

breedte: 50-06N, lengte: 014-15E, hoogte: 365 m

Actueel weer

Dit bericht is 35 minuten geleden gemaakt, om 07:30 UTC
Wind 7 kt uit het zuidwesten
Temperatuur 13°C
Vochtigheid 94%
Druk 1015 hPa
Zicht 10 km of meer
Weinig wolken op 2500 ft

METAR: LKPR 170730Z 23007KT 9999 FEW025 13/12 Q1015 NOSIG

Tijdstip: 10:05 (08:05 UTC)

Verwachting

Dit bericht is 3 uur en het 5 minuten geleden gemaakt, om 05:00 UTC
Verwachting geldig van 17 om 06 UTC tot 18 om 12 UTC
Wind 8 kt uit het westzuidwesten
Zicht 10 km of meer
Gebroken wolken op 2700 ft
Tijdelijke
van 17 om 10 UTC tot 17 om 18 UTC
Wind 12 kt uit het westnoordwesten
Zicht: 8000 m
Verspreide wolken op 2500 ft, Stapelwolken.
regenbuien
Tijdelijke
van 18 om 08 UTC tot 18 om 12 UTC
Zicht: 8000 m
Verspreide wolken op 2500 ft, Stapelwolken.
regenbuien

TAF: LKPR 170500Z 1706/1812 25008KT 9999 BKN027 TEMPO 1710/1718 30012KT 8000 SHRA SCT025TCU TEMPO 1808/1812 8000 SHRA SCT025TCU

Waarnemingen en weersverwachtingen van meer dan 4000 vliegvelden (METAR en TAF).

De beschikbare stations zijn de gele en rode punten op de kaart.

Ga met uw muis naar het station om de naam te zien.

Klik dan om waarnemingen en weersverwachtingen te zien.

kaart wijzigen: klik op de groene knoppen met een zwart kruis om in te zoomen, op de groene knop met een streepje om uit te zoomen of op de groene pijlen voor aangrenzende kaarten.


METAR-TAF: